KIKG Airport (Kleberg County) Information

FAA: IKG - ICAO: KIKG

KIKG Airport Location

State Texas
County Kleberg
City Kingsville
KIKG Airport is 9 miles west of Kingsville, TX.
Latitude 27-33-03.1000N
Longitude 098-01-51.3000W
Elevation 130ft

KIKG Airport METARs

METAR KIKG 071935Z AUTO 17009KT 10SM BKN041 BKN050 BKN060 29/20 A3010 RMK AO2 T02890197
Altimeter 30.10"
Temperature 28.9°C (84.0°F)
Wind 170° at 9KT
Clouds broken at 4,100ft broken at 5,000ft broken at 6,000ft
Visibility 10.0mi
Time observed: 2022-12-07T19:35:00Z

KIKG Airport Details

Status Operational
Activation February 1964
Ownership Public
Usage Public
Chart BROWNSVILLE
ATC on-site No
Beacon schedule sunset-sunrise
Beacon color clear green

KIKG Airport Contacts

Owner KLEBERG COUNTY
Owner address PO BOX 752, KINGSVILLE, TX 78364
Owner phone (361) 595-8540
Manager HENRY E SMITH
Manager address ROUTE 1, BOX 1025, CROCKETT, TX 75835
Manager phone 713-655-4133

KIKG Airport (Kleberg County) Radio Frequencies

KIKG (Airport) Radio Frequencies

UNICOM 122.7
Common traffic advisory frequency (CTAF) 122.7